METAR Data
IDs: Format: Raw Decoded Include TAF

Data at: 0554 UTC 24 Sep 2018

METAR for:KPIE (St Petersburg/Clearw, FL, US)
Text:KPIE 240453Z AUTO 10008KT 10SM CLR 26/23 A3001 RMK AO2 SLP162 T02610233 403220250
Temperature: 26.1°C ( 79°F)
Dewpoint: 23.3°C ( 74°F) [RH = 85%]
Pressure (altimeter):30.01 inches Hg (1016.3 mb) [Sea level pressure: 1016.2 mb]
Winds:from the E (100 degrees) at 9 MPH (8 knots; 4.1 m/s)
Visibility:10 or more sm (16+ km)
Ceiling:at least 12,000 feet AGL
Clouds:sky clear below 12,000 feet AGL
QC Flag:automated observation with no human augmentation